sensor_id;sensor_type;location;lat;lon;timestamp;P1;durP1;ratioP1;P2;durP2;ratioP2
17361;SDS011;8798;51.938;4.348;2023-01-19T00:01:21;1.73;;;0.60;;
17361;SDS011;8798;51.938;4.348;2023-01-19T00:03:49;2.77;;;0.97;;
17361;SDS011;8798;51.938;4.348;2023-01-19T00:06:18;2.57;;;0.63;;
17361;SDS011;8798;51.938;4.348;2023-01-19T00:08:45;0.87;;;0.53;;
17361;SDS011;8798;51.938;4.348;2023-01-19T00:11:15;3.70;;;0.70;;
17361;SDS011;8798;51.938;4.348;2023-01-19T00:13:45;0.70;;;0.30;;
17361;SDS011;8798;51.938;4.348;2023-01-19T00:16:19;0.10;;;0.10;;
17361;SDS011;8798;51.938;4.348;2023-01-19T00:18:49;1.80;;;0.37;;
17361;SDS011;8798;51.938;4.348;2023-01-19T00:21:18;1.33;;;0.23;;
17361;SDS011;8798;51.938;4.348;2023-01-19T00:23:46;1.00;;;0.30;;
17361;SDS011;8798;51.938;4.348;2023-01-19T00:26:17;2.47;;;0.30;;
17361;SDS011;8798;51.938;4.348;2023-01-19T00:28:48;2.40;;;0.30;;
17361;SDS011;8798;51.938;4.348;2023-01-19T00:31:18;0.60;;;0.17;;
17361;SDS011;8798;51.938;4.348;2023-01-19T00:33:47;3.27;;;0.40;;
17361;SDS011;8798;51.938;4.348;2023-01-19T00:36:16;2.53;;;0.40;;
17361;SDS011;8798;51.938;4.348;2023-01-19T00:38:44;2.73;;;0.33;;
17361;SDS011;8798;51.938;4.348;2023-01-19T00:41:12;3.77;;;0.40;;
17361;SDS011;8798;51.938;4.348;2023-01-19T00:43:40;2.23;;;0.63;;
17361;SDS011;8798;51.938;4.348;2023-01-19T00:46:08;3.97;;;0.47;;
17361;SDS011;8798;51.938;4.348;2023-01-19T00:48:36;1.47;;;0.40;;
17361;SDS011;8798;51.938;4.348;2023-01-19T00:51:04;4.27;;;0.40;;
17361;SDS011;8798;51.938;4.348;2023-01-19T00:53:32;0.43;;;0.17;;
17361;SDS011;8798;51.938;4.348;2023-01-19T00:55:59;1.23;;;0.40;;
17361;SDS011;8798;51.938;4.348;2023-01-19T00:58:27;1.23;;;0.40;;
17361;SDS011;8798;51.938;4.348;2023-01-19T01:00:55;6.80;;;0.63;;
17361;SDS011;8798;51.938;4.348;2023-01-19T01:03:30;0.77;;;0.27;;
17361;SDS011;8798;51.938;4.348;2023-01-19T01:05:59;0.90;;;0.20;;
17361;SDS011;8798;51.938;4.348;2023-01-19T01:08:27;1.73;;;0.20;;
17361;SDS011;8798;51.938;4.348;2023-01-19T01:10:55;5.40;;;0.60;;
17361;SDS011;8798;51.938;4.348;2023-01-19T01:13:23;2.60;;;0.70;;
17361;SDS011;8798;51.938;4.348;2023-01-19T01:15:53;1.03;;;0.20;;
17361;SDS011;8798;51.938;4.348;2023-01-19T01:18:23;2.47;;;0.60;;
17361;SDS011;8798;51.938;4.348;2023-01-19T01:20:58;3.57;;;0.40;;
17361;SDS011;8798;51.938;4.348;2023-01-19T01:23:27;6.37;;;0.60;;
17361;SDS011;8798;51.938;4.348;2023-01-19T01:25:55;1.23;;;0.30;;
17361;SDS011;8798;51.938;4.348;2023-01-19T01:28:22;2.00;;;0.20;;
17361;SDS011;8798;51.938;4.348;2023-01-19T01:30:51;1.40;;;0.30;;
17361;SDS011;8798;51.938;4.348;2023-01-19T01:33:19;2.23;;;0.30;;
17361;SDS011;8798;51.938;4.348;2023-01-19T01:36:09;2.23;;;0.70;;
17361;SDS011;8798;51.938;4.348;2023-01-19T01:38:37;1.10;;;0.30;;
17361;SDS011;8798;51.938;4.348;2023-01-19T01:41:05;0.10;;;0.10;;
17361;SDS011;8798;51.938;4.348;2023-01-19T01:43:44;1.63;;;0.20;;
17361;SDS011;8798;51.938;4.348;2023-01-19T01:46:14;0.60;;;0.20;;
17361;SDS011;8798;51.938;4.348;2023-01-19T01:48:44;1.53;;;0.20;;
17361;SDS011;8798;51.938;4.348;2023-01-19T01:51:20;0.73;;;0.37;;
17361;SDS011;8798;51.938;4.348;2023-01-19T01:53:54;3.53;;;0.43;;
17361;SDS011;8798;51.938;4.348;2023-01-19T01:56:30;3.80;;;0.40;;
17361;SDS011;8798;51.938;4.348;2023-01-19T01:59:00;1.27;;;0.60;;
17361;SDS011;8798;51.938;4.348;2023-01-19T02:01:31;1.23;;;0.43;;
17361;SDS011;8798;51.938;4.348;2023-01-19T02:04:18;2.20;;;0.50;;
17361;SDS011;8798;51.938;4.348;2023-01-19T02:06:48;2.73;;;0.40;;
17361;SDS011;8798;51.938;4.348;2023-01-19T02:09:35;4.50;;;0.57;;
17361;SDS011;8798;51.938;4.348;2023-01-19T02:12:21;2.13;;;0.50;;
17361;SDS011;8798;51.938;4.348;2023-01-19T02:15:13;1.47;;;0.37;;
17361;SDS011;8798;51.938;4.348;2023-01-19T02:17:42;1.83;;;0.40;;
17361;SDS011;8798;51.938;4.348;2023-01-19T02:20:10;1.03;;;0.13;;
17361;SDS011;8798;51.938;4.348;2023-01-19T02:22:43;1.13;;;0.30;;
17361;SDS011;8798;51.938;4.348;2023-01-19T02:25:16;1.77;;;0.50;;
17361;SDS011;8798;51.938;4.348;2023-01-19T02:27:45;0.83;;;0.20;;
17361;SDS011;8798;51.938;4.348;2023-01-19T02:30:14;1.20;;;0.27;;
17361;SDS011;8798;51.938;4.348;2023-01-19T02:32:43;0.10;;;0.10;;
17361;SDS011;8798;51.938;4.348;2023-01-19T02:35:11;1.77;;;0.20;;
17361;SDS011;8798;51.938;4.348;2023-01-19T02:37:39;1.20;;;0.20;;
17361;SDS011;8798;51.938;4.348;2023-01-19T02:40:11;1.07;;;0.20;;
17361;SDS011;8798;51.938;4.348;2023-01-19T02:42:43;1.70;;;0.40;;
17361;SDS011;8798;51.938;4.348;2023-01-19T02:45:16;1.33;;;0.30;;
17361;SDS011;8798;51.938;4.348;2023-01-19T02:47:49;1.60;;;0.30;;
17361;SDS011;8798;51.938;4.348;2023-01-19T02:53:22;1.10;;;0.23;;
17361;SDS011;8798;51.938;4.348;2023-01-19T02:56:01;1.53;;;0.20;;
17361;SDS011;8798;51.938;4.348;2023-01-19T02:58:39;3.93;;;0.33;;
17361;SDS011;8798;51.938;4.348;2023-01-19T03:01:15;0.83;;;0.20;;
17361;SDS011;8798;51.938;4.348;2023-01-19T03:03:52;1.10;;;0.30;;
17361;SDS011;8798;51.938;4.348;2023-01-19T03:06:25;0.70;;;0.40;;
17361;SDS011;8798;51.938;4.348;2023-01-19T03:09:06;2.67;;;0.30;;
17361;SDS011;8798;51.938;4.348;2023-01-19T03:11:40;1.83;;;0.43;;
17361;SDS011;8798;51.938;4.348;2023-01-19T03:14:15;5.23;;;0.37;;
17361;SDS011;8798;51.938;4.348;2023-01-19T03:16:50;2.70;;;0.70;;
17361;SDS011;8798;51.938;4.348;2023-01-19T03:19:22;7.27;;;1.03;;
17361;SDS011;8798;51.938;4.348;2023-01-19T03:21:53;2.53;;;0.70;;
17361;SDS011;8798;51.938;4.348;2023-01-19T03:24:24;3.40;;;0.50;;
17361;SDS011;8798;51.938;4.348;2023-01-19T03:26:58;3.70;;;0.93;;
17361;SDS011;8798;51.938;4.348;2023-01-19T03:29:31;5.50;;;0.93;;
17361;SDS011;8798;51.938;4.348;2023-01-19T03:32:02;2.30;;;0.63;;
17361;SDS011;8798;51.938;4.348;2023-01-19T03:34:34;3.13;;;0.50;;
17361;SDS011;8798;51.938;4.348;2023-01-19T03:37:04;6.67;;;0.60;;
17361;SDS011;8798;51.938;4.348;2023-01-19T03:39:36;1.33;;;0.40;;
17361;SDS011;8798;51.938;4.348;2023-01-19T03:42:05;2.30;;;0.67;;
17361;SDS011;8798;51.938;4.348;2023-01-19T03:44:37;5.43;;;0.70;;
17361;SDS011;8798;51.938;4.348;2023-01-19T03:47:07;6.33;;;0.73;;
17361;SDS011;8798;51.938;4.348;2023-01-19T03:49:37;5.17;;;1.00;;
17361;SDS011;8798;51.938;4.348;2023-01-19T03:52:08;4.97;;;0.90;;
17361;SDS011;8798;51.938;4.348;2023-01-19T03:54:36;5.23;;;1.30;;
17361;SDS011;8798;51.938;4.348;2023-01-19T03:57:04;8.63;;;1.07;;
17361;SDS011;8798;51.938;4.348;2023-01-19T03:59:32;8.93;;;1.17;;
17361;SDS011;8798;51.938;4.348;2023-01-19T04:02:01;3.90;;;1.10;;
17361;SDS011;8798;51.938;4.348;2023-01-19T04:04:29;6.10;;;1.20;;
17361;SDS011;8798;51.938;4.348;2023-01-19T04:06:57;8.60;;;1.43;;
17361;SDS011;8798;51.938;4.348;2023-01-19T04:09:26;5.57;;;1.10;;
17361;SDS011;8798;51.938;4.348;2023-01-19T04:11:54;4.00;;;0.93;;
17361;SDS011;8798;51.938;4.348;2023-01-19T04:14:22;7.40;;;1.20;;
17361;SDS011;8798;51.938;4.348;2023-01-19T04:16:50;6.47;;;2.00;;
17361;SDS011;8798;51.938;4.348;2023-01-19T04:19:19;11.03;;;1.03;;
17361;SDS011;8798;51.938;4.348;2023-01-19T04:21:47;10.83;;;1.50;;
17361;SDS011;8798;51.938;4.348;2023-01-19T04:24:15;4.50;;;1.10;;
17361;SDS011;8798;51.938;4.348;2023-01-19T04:26:43;7.47;;;1.03;;
17361;SDS011;8798;51.938;4.348;2023-01-19T04:29:11;4.93;;;0.87;;
17361;SDS011;8798;51.938;4.348;2023-01-19T04:31:39;5.10;;;0.70;;
17361;SDS011;8798;51.938;4.348;2023-01-19T04:34:07;5.73;;;1.20;;
17361;SDS011;8798;51.938;4.348;2023-01-19T04:36:36;3.93;;;0.60;;
17361;SDS011;8798;51.938;4.348;2023-01-19T04:39:04;3.70;;;0.83;;
17361;SDS011;8798;51.938;4.348;2023-01-19T04:41:34;5.63;;;0.80;;
17361;SDS011;8798;51.938;4.348;2023-01-19T04:44:02;6.00;;;1.30;;
17361;SDS011;8798;51.938;4.348;2023-01-19T04:46:31;5.80;;;1.23;;
17361;SDS011;8798;51.938;4.348;2023-01-19T04:48:59;6.20;;;1.03;;
17361;SDS011;8798;51.938;4.348;2023-01-19T04:51:26;5.57;;;0.90;;
17361;SDS011;8798;51.938;4.348;2023-01-19T04:53:56;3.83;;;0.93;;
17361;SDS011;8798;51.938;4.348;2023-01-19T04:56:24;9.80;;;1.27;;
17361;SDS011;8798;51.938;4.348;2023-01-19T04:58:51;9.73;;;1.13;;
17361;SDS011;8798;51.938;4.348;2023-01-19T05:01:19;6.20;;;1.10;;
17361;SDS011;8798;51.938;4.348;2023-01-19T05:03:47;6.57;;;1.00;;
17361;SDS011;8798;51.938;4.348;2023-01-19T05:06:15;5.83;;;1.27;;
17361;SDS011;8798;51.938;4.348;2023-01-19T05:08:43;5.63;;;1.20;;
17361;SDS011;8798;51.938;4.348;2023-01-19T05:11:12;9.13;;;2.07;;
17361;SDS011;8798;51.938;4.348;2023-01-19T05:13:40;7.00;;;1.33;;
17361;SDS011;8798;51.938;4.348;2023-01-19T05:16:07;7.67;;;1.40;;
17361;SDS011;8798;51.938;4.348;2023-01-19T05:18:36;8.67;;;1.47;;
17361;SDS011;8798;51.938;4.348;2023-01-19T05:21:04;13.27;;;1.50;;
17361;SDS011;8798;51.938;4.348;2023-01-19T05:23:32;7.90;;;1.40;;
17361;SDS011;8798;51.938;4.348;2023-01-19T05:26:01;8.83;;;1.67;;
17361;SDS011;8798;51.938;4.348;2023-01-19T05:28:31;7.80;;;1.10;;
17361;SDS011;8798;51.938;4.348;2023-01-19T05:31:02;8.23;;;1.10;;
17361;SDS011;8798;51.938;4.348;2023-01-19T05:33:30;7.77;;;0.90;;
17361;SDS011;8798;51.938;4.348;2023-01-19T05:35:58;6.60;;;1.27;;
17361;SDS011;8798;51.938;4.348;2023-01-19T05:38:27;6.07;;;1.20;;
17361;SDS011;8798;51.938;4.348;2023-01-19T05:41:01;6.77;;;1.33;;
17361;SDS011;8798;51.938;4.348;2023-01-19T05:43:28;8.07;;;1.27;;
17361;SDS011;8798;51.938;4.348;2023-01-19T05:45:58;7.87;;;1.00;;
17361;SDS011;8798;51.938;4.348;2023-01-19T05:48:25;3.10;;;0.87;;
17361;SDS011;8798;51.938;4.348;2023-01-19T05:50:55;3.27;;;1.10;;
17361;SDS011;8798;51.938;4.348;2023-01-19T05:53:24;8.60;;;1.47;;
17361;SDS011;8798;51.938;4.348;2023-01-19T05:55:52;6.07;;;0.80;;
17361;SDS011;8798;51.938;4.348;2023-01-19T05:58:20;7.10;;;1.33;;
17361;SDS011;8798;51.938;4.348;2023-01-19T06:00:49;5.40;;;1.37;;
17361;SDS011;8798;51.938;4.348;2023-01-19T06:03:17;7.17;;;1.40;;
17361;SDS011;8798;51.938;4.348;2023-01-19T06:05:45;7.00;;;1.20;;
17361;SDS011;8798;51.938;4.348;2023-01-19T06:08:13;5.70;;;1.40;;
17361;SDS011;8798;51.938;4.348;2023-01-19T06:10:41;9.00;;;1.77;;
17361;SDS011;8798;51.938;4.348;2023-01-19T06:13:08;5.10;;;1.00;;
17361;SDS011;8798;51.938;4.348;2023-01-19T06:15:36;8.87;;;1.27;;
17361;SDS011;8798;51.938;4.348;2023-01-19T06:18:05;9.70;;;1.20;;
17361;SDS011;8798;51.938;4.348;2023-01-19T06:20:34;10.40;;;1.60;;
17361;SDS011;8798;51.938;4.348;2023-01-19T06:23:02;7.77;;;1.87;;
17361;SDS011;8798;51.938;4.348;2023-01-19T06:25:30;9.53;;;1.53;;
17361;SDS011;8798;51.938;4.348;2023-01-19T06:27:57;6.60;;;1.27;;
17361;SDS011;8798;51.938;4.348;2023-01-19T06:30:25;5.00;;;1.10;;
17361;SDS011;8798;51.938;4.348;2023-01-19T06:32:54;7.80;;;1.67;;
17361;SDS011;8798;51.938;4.348;2023-01-19T06:35:23;5.67;;;1.33;;
17361;SDS011;8798;51.938;4.348;2023-01-19T06:37:51;6.20;;;1.27;;
17361;SDS011;8798;51.938;4.348;2023-01-19T06:40:19;5.93;;;0.90;;
17361;SDS011;8798;51.938;4.348;2023-01-19T06:42:47;6.53;;;1.37;;
17361;SDS011;8798;51.938;4.348;2023-01-19T06:45:15;5.33;;;1.13;;
17361;SDS011;8798;51.938;4.348;2023-01-19T06:47:42;4.47;;;1.20;;
17361;SDS011;8798;51.938;4.348;2023-01-19T06:50:13;5.30;;;0.87;;
17361;SDS011;8798;51.938;4.348;2023-01-19T06:52:43;8.27;;;1.60;;
17361;SDS011;8798;51.938;4.348;2023-01-19T06:55:11;9.67;;;1.60;;
17361;SDS011;8798;51.938;4.348;2023-01-19T06:57:39;12.63;;;1.60;;
17361;SDS011;8798;51.938;4.348;2023-01-19T07:00:08;6.33;;;1.17;;
17361;SDS011;8798;51.938;4.348;2023-01-19T07:02:39;4.57;;;0.93;;
17361;SDS011;8798;51.938;4.348;2023-01-19T07:05:08;7.83;;;1.37;;
17361;SDS011;8798;51.938;4.348;2023-01-19T07:07:36;11.70;;;1.20;;
17361;SDS011;8798;51.938;4.348;2023-01-19T07:10:07;6.37;;;1.13;;
17361;SDS011;8798;51.938;4.348;2023-01-19T07:12:37;5.73;;;1.20;;
17361;SDS011;8798;51.938;4.348;2023-01-19T07:15:05;4.07;;;1.07;;
17361;SDS011;8798;51.938;4.348;2023-01-19T07:17:34;7.47;;;1.40;;
17361;SDS011;8798;51.938;4.348;2023-01-19T07:20:03;3.80;;;1.20;;
17361;SDS011;8798;51.938;4.348;2023-01-19T07:22:31;9.47;;;1.30;;
17361;SDS011;8798;51.938;4.348;2023-01-19T07:24:59;6.63;;;1.20;;
17361;SDS011;8798;51.938;4.348;2023-01-19T07:27:31;3.97;;;0.93;;
17361;SDS011;8798;51.938;4.348;2023-01-19T07:29:58;4.17;;;1.00;;
17361;SDS011;8798;51.938;4.348;2023-01-19T07:32:27;3.53;;;1.17;;
17361;SDS011;8798;51.938;4.348;2023-01-19T07:34:55;7.73;;;1.10;;
17361;SDS011;8798;51.938;4.348;2023-01-19T07:37:22;4.37;;;1.17;;
17361;SDS011;8798;51.938;4.348;2023-01-19T07:39:50;5.27;;;1.20;;
17361;SDS011;8798;51.938;4.348;2023-01-19T07:42:18;2.73;;;1.00;;
17361;SDS011;8798;51.938;4.348;2023-01-19T07:44:47;9.47;;;1.47;;
17361;SDS011;8798;51.938;4.348;2023-01-19T07:47:15;2.63;;;1.03;;
17361;SDS011;8798;51.938;4.348;2023-01-19T07:49:43;6.47;;;1.23;;
17361;SDS011;8798;51.938;4.348;2023-01-19T07:52:11;9.33;;;1.57;;
17361;SDS011;8798;51.938;4.348;2023-01-19T07:54:38;8.73;;;1.40;;
17361;SDS011;8798;51.938;4.348;2023-01-19T07:57:06;5.87;;;1.00;;
17361;SDS011;8798;51.938;4.348;2023-01-19T07:59:34;4.80;;;0.97;;
17361;SDS011;8798;51.938;4.348;2023-01-19T08:02:03;6.30;;;1.10;;
17361;SDS011;8798;51.938;4.348;2023-01-19T08:04:31;8.43;;;1.20;;
17361;SDS011;8798;51.938;4.348;2023-01-19T08:07:00;4.63;;;1.23;;
17361;SDS011;8798;51.938;4.348;2023-01-19T08:09:28;4.00;;;0.90;;
17361;SDS011;8798;51.938;4.348;2023-01-19T08:11:56;3.67;;;0.70;;
17361;SDS011;8798;51.938;4.348;2023-01-19T08:14:24;5.13;;;1.00;;
17361;SDS011;8798;51.938;4.348;2023-01-19T08:16:52;7.07;;;1.00;;
17361;SDS011;8798;51.938;4.348;2023-01-19T08:19:21;5.70;;;1.30;;
17361;SDS011;8798;51.938;4.348;2023-01-19T08:21:49;2.03;;;0.60;;
17361;SDS011;8798;51.938;4.348;2023-01-19T08:24:17;4.23;;;1.13;;
17361;SDS011;8798;51.938;4.348;2023-01-19T08:26:48;4.50;;;0.80;;
17361;SDS011;8798;51.938;4.348;2023-01-19T08:29:16;1.50;;;0.57;;
17361;SDS011;8798;51.938;4.348;2023-01-19T08:31:43;5.70;;;0.90;;
17361;SDS011;8798;51.938;4.348;2023-01-19T08:34:12;3.43;;;0.80;;
17361;SDS011;8798;51.938;4.348;2023-01-19T08:36:41;3.90;;;0.80;;
17361;SDS011;8798;51.938;4.348;2023-01-19T08:39:09;6.13;;;0.83;;
17361;SDS011;8798;51.938;4.348;2023-01-19T08:41:37;4.10;;;1.20;;
17361;SDS011;8798;51.938;4.348;2023-01-19T08:44:05;2.27;;;0.63;;
17361;SDS011;8798;51.938;4.348;2023-01-19T08:46:33;2.80;;;0.83;;
17361;SDS011;8798;51.938;4.348;2023-01-19T08:49:01;5.07;;;1.10;;
17361;SDS011;8798;51.938;4.348;2023-01-19T08:51:28;4.27;;;0.80;;
17361;SDS011;8798;51.938;4.348;2023-01-19T08:53:58;1.23;;;0.63;;
17361;SDS011;8798;51.938;4.348;2023-01-19T08:56:25;4.30;;;0.90;;
17361;SDS011;8798;51.938;4.348;2023-01-19T08:58:53;8.23;;;0.80;;
17361;SDS011;8798;51.938;4.348;2023-01-19T09:01:34;1.47;;;0.67;;
17361;SDS011;8798;51.938;4.348;2023-01-19T09:04:03;3.27;;;1.27;;
17361;SDS011;8798;51.938;4.348;2023-01-19T09:06:31;2.90;;;0.90;;
17361;SDS011;8798;51.938;4.348;2023-01-19T09:09:00;4.03;;;1.00;;
17361;SDS011;8798;51.938;4.348;2023-01-19T09:11:28;2.87;;;0.90;;
17361;SDS011;8798;51.938;4.348;2023-01-19T09:13:57;4.70;;;1.03;;
17361;SDS011;8798;51.938;4.348;2023-01-19T09:16:25;2.83;;;0.80;;
17361;SDS011;8798;51.938;4.348;2023-01-19T09:18:54;9.47;;;1.07;;
17361;SDS011;8798;51.938;4.348;2023-01-19T09:21:22;3.03;;;0.80;;
17361;SDS011;8798;51.938;4.348;2023-01-19T09:23:50;7.27;;;1.00;;
17361;SDS011;8798;51.938;4.348;2023-01-19T09:26:23;3.63;;;0.90;;
17361;SDS011;8798;51.938;4.348;2023-01-19T09:28:52;1.43;;;0.60;;
17361;SDS011;8798;51.938;4.348;2023-01-19T09:31:20;2.83;;;0.67;;
17361;SDS011;8798;51.938;4.348;2023-01-19T09:33:48;3.27;;;0.90;;
17361;SDS011;8798;51.938;4.348;2023-01-19T09:36:18;1.83;;;0.67;;
17361;SDS011;8798;51.938;4.348;2023-01-19T09:38:46;6.43;;;1.00;;
17361;SDS011;8798;51.938;4.348;2023-01-19T09:41:16;4.90;;;0.70;;
17361;SDS011;8798;51.938;4.348;2023-01-19T09:43:49;2.77;;;0.60;;
17361;SDS011;8798;51.938;4.348;2023-01-19T09:46:24;1.07;;;0.40;;
17361;SDS011;8798;51.938;4.348;2023-01-19T09:48:57;5.03;;;0.93;;
17361;SDS011;8798;51.938;4.348;2023-01-19T09:51:31;0.90;;;0.37;;
17361;SDS011;8798;51.938;4.348;2023-01-19T09:54:05;2.97;;;0.67;;
17361;SDS011;8798;51.938;4.348;2023-01-19T09:56:39;3.83;;;0.70;;
17361;SDS011;8798;51.938;4.348;2023-01-19T09:59:16;2.70;;;0.60;;
17361;SDS011;8798;51.938;4.348;2023-01-19T10:01:50;5.63;;;0.80;;
17361;SDS011;8798;51.938;4.348;2023-01-19T10:04:33;1.97;;;0.53;;
17361;SDS011;8798;51.938;4.348;2023-01-19T10:07:08;3.83;;;0.60;;
17361;SDS011;8798;51.938;4.348;2023-01-19T10:09:44;2.70;;;0.40;;
17361;SDS011;8798;51.938;4.348;2023-01-19T10:12:27;2.43;;;0.60;;
17361;SDS011;8798;51.938;4.348;2023-01-19T10:15:13;0.33;;;0.30;;
17361;SDS011;8798;51.938;4.348;2023-01-19T10:17:50;3.47;;;0.80;;
17361;SDS011;8798;51.938;4.348;2023-01-19T10:20:28;1.13;;;0.50;;
17361;SDS011;8798;51.938;4.348;2023-01-19T10:23:03;1.60;;;0.37;;
17361;SDS011;8798;51.938;4.348;2023-01-19T10:25:41;0.77;;;0.43;;
17361;SDS011;8798;51.938;4.348;2023-01-19T10:28:09;3.33;;;0.40;;
17361;SDS011;8798;51.938;4.348;2023-01-19T10:30:41;0.63;;;0.23;;
17361;SDS011;8798;51.938;4.348;2023-01-19T10:33:11;3.47;;;0.57;;
17361;SDS011;8798;51.938;4.348;2023-01-19T10:35:40;2.73;;;0.60;;
17361;SDS011;8798;51.938;4.348;2023-01-19T10:38:11;1.00;;;0.33;;
17361;SDS011;8798;51.938;4.348;2023-01-19T10:40:42;4.13;;;0.70;;
17361;SDS011;8798;51.938;4.348;2023-01-19T10:46:13;2.10;;;0.50;;
17361;SDS011;8798;51.938;4.348;2023-01-19T10:48:48;1.30;;;0.30;;
17361;SDS011;8798;51.938;4.348;2023-01-19T10:51:17;1.80;;;0.33;;
17361;SDS011;8798;51.938;4.348;2023-01-19T10:53:52;1.87;;;0.40;;
17361;SDS011;8798;51.938;4.348;2023-01-19T10:56:23;4.80;;;0.57;;
17361;SDS011;8798;51.938;4.348;2023-01-19T10:58:54;3.17;;;0.50;;
17361;SDS011;8798;51.938;4.348;2023-01-19T11:01:24;1.27;;;0.77;;
17361;SDS011;8798;51.938;4.348;2023-01-19T11:03:53;2.23;;;0.60;;
17361;SDS011;8798;51.938;4.348;2023-01-19T11:06:26;0.67;;;0.23;;
17361;SDS011;8798;51.938;4.348;2023-01-19T11:09:10;1.07;;;0.50;;
17361;SDS011;8798;51.938;4.348;2023-01-19T11:11:42;3.80;;;0.53;;
17361;SDS011;8798;51.938;4.348;2023-01-19T11:14:12;4.17;;;0.80;;
17361;SDS011;8798;51.938;4.348;2023-01-19T11:16:46;3.93;;;0.60;;
17361;SDS011;8798;51.938;4.348;2023-01-19T11:19:17;1.53;;;0.60;;
17361;SDS011;8798;51.938;4.348;2023-01-19T11:21:48;4.37;;;0.60;;
17361;SDS011;8798;51.938;4.348;2023-01-19T11:24:16;1.40;;;0.50;;
17361;SDS011;8798;51.938;4.348;2023-01-19T11:26:45;2.17;;;0.50;;
17361;SDS011;8798;51.938;4.348;2023-01-19T11:29:15;0.47;;;0.30;;
17361;SDS011;8798;51.938;4.348;2023-01-19T11:31:47;2.20;;;0.50;;
17361;SDS011;8798;51.938;4.348;2023-01-19T11:34:25;5.67;;;0.70;;
17361;SDS011;8798;51.938;4.348;2023-01-19T11:36:58;2.50;;;0.60;;
17361;SDS011;8798;51.938;4.348;2023-01-19T11:39:27;4.37;;;0.53;;
17361;SDS011;8798;51.938;4.348;2023-01-19T11:41:57;2.30;;;0.70;;
17361;SDS011;8798;51.938;4.348;2023-01-19T11:44:28;2.90;;;0.60;;
17361;SDS011;8798;51.938;4.348;2023-01-19T11:47:01;3.63;;;0.80;;
17361;SDS011;8798;51.938;4.348;2023-01-19T11:49:35;0.90;;;0.47;;
17361;SDS011;8798;51.938;4.348;2023-01-19T11:52:11;3.17;;;0.70;;
17361;SDS011;8798;51.938;4.348;2023-01-19T11:54:48;1.80;;;0.50;;
17361;SDS011;8798;51.938;4.348;2023-01-19T11:57:23;2.63;;;0.60;;
17361;SDS011;8798;51.938;4.348;2023-01-19T11:59:52;3.50;;;0.57;;
17361;SDS011;8798;51.938;4.348;2023-01-19T12:02:24;2.60;;;0.60;;
17361;SDS011;8798;51.938;4.348;2023-01-19T12:04:55;3.20;;;0.50;;
17361;SDS011;8798;51.938;4.348;2023-01-19T12:07:28;1.10;;;0.40;;
17361;SDS011;8798;51.938;4.348;2023-01-19T12:10:01;2.43;;;0.50;;
17361;SDS011;8798;51.938;4.348;2023-01-19T12:12:39;1.57;;;0.63;;
17361;SDS011;8798;51.938;4.348;2023-01-19T12:15:10;1.00;;;0.40;;
17361;SDS011;8798;51.938;4.348;2023-01-19T12:17:49;2.00;;;0.40;;
17361;SDS011;8798;51.938;4.348;2023-01-19T12:20:21;4.10;;;0.90;;
17361;SDS011;8798;51.938;4.348;2023-01-19T12:22:54;3.80;;;0.60;;
17361;SDS011;8798;51.938;4.348;2023-01-19T12:25:30;3.47;;;0.67;;
17361;SDS011;8798;51.938;4.348;2023-01-19T12:28:08;2.80;;;0.70;;
17361;SDS011;8798;51.938;4.348;2023-01-19T12:30:40;5.53;;;0.80;;
17361;SDS011;8798;51.938;4.348;2023-01-19T12:33:22;2.13;;;0.83;;
17361;SDS011;8798;51.938;4.348;2023-01-19T12:36:03;2.20;;;0.60;;
17361;SDS011;8798;51.938;4.348;2023-01-19T12:38:43;3.63;;;0.57;;
17361;SDS011;8798;51.938;4.348;2023-01-19T12:41:21;3.20;;;0.53;;
17361;SDS011;8798;51.938;4.348;2023-01-19T12:46:49;2.43;;;0.57;;
17361;SDS011;8798;51.938;4.348;2023-01-19T12:49:25;1.23;;;0.60;;
17361;SDS011;8798;51.938;4.348;2023-01-19T12:52:09;1.90;;;0.60;;
17361;SDS011;8798;51.938;4.348;2023-01-19T12:54:41;2.00;;;0.53;;
17361;SDS011;8798;51.938;4.348;2023-01-19T12:57:17;3.20;;;0.73;;
17361;SDS011;8798;51.938;4.348;2023-01-19T12:59:55;1.60;;;0.60;;
17361;SDS011;8798;51.938;4.348;2023-01-19T13:05:23;3.97;;;0.80;;
17361;SDS011;8798;51.938;4.348;2023-01-19T13:08:14;2.87;;;0.90;;
17361;SDS011;8798;51.938;4.348;2023-01-19T13:16:57;1.80;;;0.80;;
17361;SDS011;8798;51.938;4.348;2023-01-19T13:19:33;2.23;;;0.57;;
17361;SDS011;8798;51.938;4.348;2023-01-19T13:25:30;2.10;;;0.40;;
17361;SDS011;8798;51.938;4.348;2023-01-19T13:28:01;1.00;;;0.50;;
17361;SDS011;8798;51.938;4.348;2023-01-19T13:30:38;2.47;;;0.60;;
17361;SDS011;8798;51.938;4.348;2023-01-19T13:33:18;1.23;;;0.67;;
17361;SDS011;8798;51.938;4.348;2023-01-19T13:35:53;4.77;;;0.70;;
17361;SDS011;8798;51.938;4.348;2023-01-19T13:38:24;1.83;;;0.50;;
17361;SDS011;8798;51.938;4.348;2023-01-19T13:40:55;1.80;;;0.60;;
17361;SDS011;8798;51.938;4.348;2023-01-19T13:43:27;4.13;;;0.53;;
17361;SDS011;8798;51.938;4.348;2023-01-19T13:45:58;0.93;;;0.63;;
17361;SDS011;8798;51.938;4.348;2023-01-19T13:48:27;0.87;;;0.50;;
17361;SDS011;8798;51.938;4.348;2023-01-19T13:50:59;0.73;;;0.40;;
17361;SDS011;8798;51.938;4.348;2023-01-19T13:53:29;2.60;;;0.80;;
17361;SDS011;8798;51.938;4.348;2023-01-19T13:56:18;1.73;;;0.63;;
17361;SDS011;8798;51.938;4.348;2023-01-19T13:58:57;1.07;;;0.47;;
17361;SDS011;8798;51.938;4.348;2023-01-19T14:01:32;3.30;;;0.53;;
17361;SDS011;8798;51.938;4.348;2023-01-19T14:04:00;3.93;;;0.70;;
17361;SDS011;8798;51.938;4.348;2023-01-19T14:06:32;2.43;;;0.50;;
17361;SDS011;8798;51.938;4.348;2023-01-19T14:09:12;4.03;;;0.87;;
17361;SDS011;8798;51.938;4.348;2023-01-19T14:11:45;3.33;;;0.63;;
17361;SDS011;8798;51.938;4.348;2023-01-19T14:14:24;3.10;;;0.50;;
17361;SDS011;8798;51.938;4.348;2023-01-19T14:16:52;3.93;;;0.90;;
17361;SDS011;8798;51.938;4.348;2023-01-19T14:19:20;2.20;;;0.60;;
17361;SDS011;8798;51.938;4.348;2023-01-19T14:21:58;4.17;;;0.50;;
17361;SDS011;8798;51.938;4.348;2023-01-19T14:24:27;1.13;;;0.40;;
17361;SDS011;8798;51.938;4.348;2023-01-19T14:27:14;2.80;;;0.57;;
17361;SDS011;8798;51.938;4.348;2023-01-19T14:29:44;0.80;;;0.50;;
17361;SDS011;8798;51.938;4.348;2023-01-19T14:32:16;1.00;;;0.40;;
17361;SDS011;8798;51.938;4.348;2023-01-19T14:34:46;1.80;;;0.83;;
17361;SDS011;8798;51.938;4.348;2023-01-19T14:37:17;1.67;;;0.53;;
17361;SDS011;8798;51.938;4.348;2023-01-19T14:39:48;1.27;;;0.40;;
17361;SDS011;8798;51.938;4.348;2023-01-19T14:42:19;0.80;;;0.47;;
17361;SDS011;8798;51.938;4.348;2023-01-19T14:44:51;2.70;;;0.50;;
17361;SDS011;8798;51.938;4.348;2023-01-19T14:47:25;2.47;;;0.50;;
17361;SDS011;8798;51.938;4.348;2023-01-19T14:49:56;3.77;;;0.70;;
17361;SDS011;8798;51.938;4.348;2023-01-19T14:52:28;2.67;;;0.70;;
17361;SDS011;8798;51.938;4.348;2023-01-19T14:54:59;5.50;;;0.67;;
17361;SDS011;8798;51.938;4.348;2023-01-19T14:57:33;3.40;;;0.73;;
17361;SDS011;8798;51.938;4.348;2023-01-19T15:00:09;3.77;;;0.57;;
17361;SDS011;8798;51.938;4.348;2023-01-19T15:02:42;0.93;;;0.60;;
17361;SDS011;8798;51.938;4.348;2023-01-19T15:05:10;3.20;;;0.60;;
17361;SDS011;8798;51.938;4.348;2023-01-19T15:07:39;2.97;;;0.70;;
17361;SDS011;8798;51.938;4.348;2023-01-19T15:10:11;1.17;;;0.53;;
17361;SDS011;8798;51.938;4.348;2023-01-19T15:12:44;2.40;;;0.63;;
17361;SDS011;8798;51.938;4.348;2023-01-19T15:15:14;2.73;;;0.63;;
17361;SDS011;8798;51.938;4.348;2023-01-19T15:17:44;1.67;;;0.63;;
17361;SDS011;8798;51.938;4.348;2023-01-19T15:20:13;1.17;;;0.60;;
17361;SDS011;8798;51.938;4.348;2023-01-19T15:22:42;2.27;;;0.80;;
17361;SDS011;8798;51.938;4.348;2023-01-19T15:25:12;1.07;;;0.70;;
17361;SDS011;8798;51.938;4.348;2023-01-19T15:27:41;2.43;;;0.80;;
17361;SDS011;8798;51.938;4.348;2023-01-19T15:30:14;1.47;;;0.70;;
17361;SDS011;8798;51.938;4.348;2023-01-19T15:32:44;2.13;;;0.60;;
17361;SDS011;8798;51.938;4.348;2023-01-19T15:35:13;4.00;;;0.83;;
17361;SDS011;8798;51.938;4.348;2023-01-19T15:37:42;2.83;;;1.00;;
17361;SDS011;8798;51.938;4.348;2023-01-19T15:40:11;1.53;;;0.77;;
17361;SDS011;8798;51.938;4.348;2023-01-19T15:42:39;1.87;;;0.80;;
17361;SDS011;8798;51.938;4.348;2023-01-19T15:45:30;5.33;;;0.83;;